Time;durP1;ratioP1;P1;durP2;ratioP2;P2;SDS_P1;SDS_P2;PMS_P1;PMS_P2;Temp;Humidity;BMP_temperature;BMP_pressure;BME280_temperature;BME280_humidity;BME280_pressure;Samples;Min_cycle;Max_cycle;Signal;HPM_P1;HPM_P2
2022/11/09 00:00:48;;;;;;;5.70;2.60;;;;;;;11.66;64.64;100528.50;7395409;19;20474;-69
2022/11/09 00:03:16;;;;;;;4.28;2.60;;;;;;;11.67;64.78;100526.75;7393550;19;20031;-69
2022/11/09 00:05:45;;;;;;;3.63;2.42;;;;;;;11.65;64.70;100524.19;7395692;19;20019;-69
2022/11/09 00:08:13;;;;;;;3.42;2.45;;;;;;;11.64;64.71;100530.34;7395574;19;20035;-68
2022/11/09 00:10:42;;;;;;;4.03;2.17;;;;;;;11.65;64.89;100528.56;7394192;19;20015;-68
2022/11/09 00:13:10;;;;;;;3.38;2.40;;;;;;;11.63;64.78;100525.97;7394078;19;20494;-69
2022/11/09 00:15:39;;;;;;;4.20;2.40;;;;;;;11.63;64.95;100519.88;7393422;19;20035;-68
2022/11/09 00:18:10;;;;;;;3.78;1.95;;;;;;;11.63;65.03;100530.41;7393529;19;20015;-69
2022/11/09 00:20:38;;;;;;;3.85;2.40;;;;;;;11.61;65.17;100526.94;7393702;19;20019;-69
2022/11/09 00:23:07;;;;;;;3.90;2.08;;;;;;;11.62;65.12;100523.41;7394385;19;20436;-69
2022/11/09 00:25:36;;;;;;;3.20;2.28;;;;;;;11.62;65.09;100526.03;7395040;19;20018;-68
2022/11/09 00:28:11;;;;;;;5.65;2.00;;;;;;;11.63;65.16;100523.34;7398126;19;20018;-68
2022/11/09 00:30:39;;;;;;;3.05;2.10;;;;;;;11.62;65.25;100521.63;7400758;19;20036;-68
2022/11/09 00:33:11;;;;;;;3.28;2.03;;;;;;;11.63;65.40;100517.25;7401652;19;20477;-68
2022/11/09 00:35:39;;;;;;;2.75;2.20;;;;;;;11.63;65.26;100528.63;7402850;19;20018;-69
2022/11/09 00:38:08;;;;;;;4.10;2.30;;;;;;;11.63;65.54;100517.25;7401890;19;20074;-68
2022/11/09 00:40:36;;;;;;;3.83;2.40;;;;;;;11.63;65.54;100525.13;7399444;19;20026;-69
2022/11/09 00:43:05;;;;;;;2.88;2.13;;;;;;;11.63;65.66;100530.41;7398710;19;20541;-69
2022/11/09 00:45:33;;;;;;;3.83;2.50;;;;;;;11.61;65.66;100522.53;7402108;19;20035;-69
2022/11/09 00:48:02;;;;;;;4.50;2.30;;;;;;;11.62;65.61;100526.03;7399062;19;20023;-68
2022/11/09 00:50:33;;;;;;;5.03;2.20;;;;;;;11.61;65.68;100527.78;7400050;19;20085;-68
2022/11/09 00:53:02;;;;;;;2.28;1.90;;;;;;;11.61;65.83;100537.44;7401154;19;20019;-68
2022/11/09 00:55:30;;;;;;;3.67;2.25;;;;;;;11.58;65.70;100528.75;7401392;19;20422;-69
2022/11/09 00:57:59;;;;;;;3.22;2.05;;;;;;;11.61;65.90;100534.81;7398597;19;20509;-68
2022/11/09 01:00:27;;;;;;;3.38;2.00;;;;;;;11.61;65.98;100532.19;7401292;19;20028;-68
2022/11/09 01:02:56;;;;;;;4.68;2.20;;;;;;;11.61;66.06;100526.94;7398570;19;20019;-68
2022/11/09 01:05:24;;;;;;;2.95;2.15;;;;;;;11.61;66.22;100524.31;7398380;19;20481;-68
2022/11/09 01:08:01;;;;;;;4.45;2.05;;;;;;;11.61;66.07;100525.16;7398615;19;20073;-69
2022/11/09 01:10:30;;;;;;;4.68;2.53;;;;;;;11.61;66.14;100522.53;7400531;19;20094;-68
2022/11/09 01:12:58;;;;;;;3.63;2.30;;;;;;;11.61;66.13;100517.28;7398941;19;20031;-69
2022/11/09 01:15:27;;;;;;;3.85;2.10;;;;;;;11.62;66.03;100518.16;7401247;19;20027;-69
2022/11/09 01:17:56;;;;;;;2.45;2.08;;;;;;;11.61;65.92;100511.16;7400683;19;20545;-69
2022/11/09 01:20:24;;;;;;;3.50;2.10;;;;;;;11.60;65.97;100515.56;7398361;19;20014;-69
2022/11/09 01:22:56;;;;;;;3.15;1.92;;;;;;;11.58;66.14;100512.97;7400710;19;20073;-69
2022/11/09 01:25:25;;;;;;;4.88;2.10;;;;;;;11.58;66.01;100502.47;7398773;19;20066;-69
2022/11/09 01:27:53;;;;;;;5.55;2.47;;;;;;;11.60;66.02;100498.94;7400340;19;20031;-69
2022/11/09 01:30:22;;;;;;;4.90;1.90;;;;;;;11.60;65.79;100493.69;7399531;19;20022;-69
2022/11/09 01:32:50;;;;;;;3.65;1.92;;;;;;;11.60;65.91;100491.06;7400005;19;20078;-70
2022/11/09 01:35:19;;;;;;;2.22;2.03;;;;;;;11.60;65.59;100483.16;7400591;19;20028;-69
2022/11/09 01:37:47;;;;;;;2.72;1.70;;;;;;;11.61;65.80;100484.91;7400055;19;20083;-69
2022/11/09 01:40:19;;;;;;;2.20;1.67;;;;;;;11.60;65.81;100488.44;7397951;19;20026;-70
2022/11/09 01:42:47;;;;;;;5.93;1.98;;;;;;;11.58;65.63;100478.81;7399982;19;20489;-70
2022/11/09 01:45:24;;;;;;;5.38;1.90;;;;;;;11.59;65.72;100479.69;7399782;19;20014;-70
2022/11/09 01:48:01;;;;;;;2.28;1.80;;;;;;;11.57;65.60;100468.34;7400446;19;20022;-70
2022/11/09 01:50:38;;;;;;;2.92;2.20;;;;;;;11.55;65.60;100470.16;7398760;19;20009;-70
2022/11/09 01:53:11;;;;;;;3.30;1.98;;;;;;;11.56;65.83;100475.41;7399956;19;20026;-70
2022/11/09 01:55:43;;;;;;;3.53;1.90;;;;;;;11.53;65.61;100478.09;7399653;19;20040;-69
2022/11/09 01:58:16;;;;;;;3.25;1.80;;;;;;;11.51;65.67;100469.41;7399820;19;20018;-69
2022/11/09 02:00:48;;;;;;;3.30;1.88;;;;;;;11.49;65.72;100479.09;7400185;19;20035;-69
2022/11/09 02:03:22;;;;;;;5.15;2.15;;;;;;;11.48;65.56;100490.50;7399480;19;20039;-70
2022/11/09 02:05:52;;;;;;;3.63;1.98;;;;;;;11.47;65.61;100495.81;7399702;19;20027;-69
2022/11/09 02:08:22;;;;;;;3.28;1.98;;;;;;;11.46;65.75;100487.09;7397035;19;20026;-69
2022/11/09 02:11:02;;;;;;;5.22;2.33;;;;;;;11.45;65.56;100473.97;7397902;19;20014;-69
2022/11/09 02:13:31;;;;;;;3.60;2.20;;;;;;;11.44;65.59;100474.88;7397893;19;20022;-70
2022/11/09 02:16:00;;;;;;;4.07;2.00;;;;;;;11.41;65.57;100474.06;7399279;19;20082;-70
2022/11/09 02:18:29;;;;;;;3.72;2.00;;;;;;;11.42;65.73;100464.41;7399105;19;20481;-70
2022/11/09 02:21:00;;;;;;;4.93;2.00;;;;;;;11.43;65.56;100467.94;7396696;19;20022;-70
2022/11/09 02:23:31;;;;;;;2.63;1.95;;;;;;;11.41;65.52;100466.19;7398528;19;20423;-70
2022/11/09 02:26:03;;;;;;;4.07;1.98;;;;;;;11.41;65.61;100468.81;7396370;19;20019;-70
2022/11/09 02:28:33;;;;;;;3.08;2.03;;;;;;;11.43;65.61;100462.66;7397034;19;20031;-70
2022/11/09 02:31:03;;;;;;;2.10;1.60;;;;;;;11.42;65.62;100453.91;7397957;19;20018;-70
2022/11/09 02:33:31;;;;;;;5.00;2.13;;;;;;;11.44;65.64;100452.13;7396394;19;20039;-70
2022/11/09 02:36:02;;;;;;;3.50;2.08;;;;;;;11.43;65.78;100452.16;7398556;19;20019;-70
2022/11/09 02:38:31;;;;;;;3.20;2.05;;;;;;;11.45;65.73;100445.97;7398966;19;20616;-70
2022/11/09 02:40:59;;;;;;;2.80;2.00;;;;;;;11.45;65.54;100438.06;7397952;19;20015;-70
2022/11/09 02:43:28;;;;;;;4.95;1.95;;;;;;;11.46;65.55;100449.44;7397644;19;20019;-71
2022/11/09 02:45:56;;;;;;;5.82;2.33;;;;;;;11.46;65.67;100445.06;7398167;19;20014;-70
2022/11/09 02:48:25;;;;;;;2.20;1.60;;;;;;;11.47;65.60;100432.78;7398045;19;20035;-70
2022/11/09 02:50:53;;;;;;;4.10;2.58;;;;;;;11.49;65.52;100437.06;7396522;19;20032;-70
2022/11/09 02:53:24;;;;;;;4.18;1.80;;;;;;;11.53;65.46;100435.22;7395879;19;20019;-69
2022/11/09 02:55:53;;;;;;;2.92;2.20;;;;;;;11.51;65.63;100427.38;7397586;19;20418;-68
2022/11/09 02:58:21;;;;;;;3.80;2.15;;;;;;;11.55;65.37;100431.63;7397874;19;20015;-69
2022/11/09 03:00:49;;;;;;;2.83;2.08;;;;;;;11.58;65.57;100433.31;7395935;19;20014;-69
2022/11/09 03:03:18;;;;;;;7.03;2.47;;;;;;;11.61;65.61;100421.84;7397263;19;20019;-70
2022/11/09 03:05:46;;;;;;;2.90;2.42;;;;;;;11.63;65.34;100425.28;7398002;19;20035;-69
2022/11/09 03:08:15;;;;;;;4.18;2.33;;;;;;;11.65;65.23;100423.44;7397505;19;20019;-70
2022/11/09 03:10:46;;;;;;;2.75;1.77;;;;;;;11.67;65.02;100433.00;7396724;19;20434;-69
2022/11/09 03:13:27;;;;;;;5.55;1.98;;;;;;;11.71;65.00;100428.50;7395589;19;20014;-69
2022/11/09 03:15:56;;;;;;;4.25;1.98;;;;;;;11.72;64.99;100425.84;7397392;19;20031;-69
2022/11/09 03:18:24;;;;;;;2.75;1.92;;;;;;;11.76;65.21;100426.59;7396977;19;20031;-70
2022/11/09 03:20:53;;;;;;;3.00;2.20;;;;;;;11.78;64.92;100435.31;7396747;19;20031;-69
2022/11/09 03:23:21;;;;;;;4.53;1.80;;;;;;;11.81;64.90;100435.19;7396391;19;20096;-70
2022/11/09 03:25:52;;;;;;;2.90;1.88;;;;;;;11.83;64.87;100428.13;7395368;19;20006;-70
2022/11/09 03:28:21;;;;;;;3.05;2.00;;;;;;;11.85;64.91;100436.84;7398001;19;20492;-69
2022/11/09 03:30:49;;;;;;;3.08;1.75;;;;;;;11.87;64.96;100448.16;7395705;19;20031;-70
2022/11/09 03:33:18;;;;;;;3.92;1.95;;;;;;;11.90;64.90;100452.44;7396498;19;20015;-70
2022/11/09 03:35:46;;;;;;;2.58;1.70;;;;;;;11.93;64.71;100451.47;7396430;19;20026;-70
2022/11/09 03:38:15;;;;;;;4.18;2.03;;;;;;;11.92;64.74;100437.50;7395868;19;20027;-70
2022/11/09 03:40:43;;;;;;;4.75;2.03;;;;;;;11.96;64.82;100438.28;7396396;19;20014;-70
2022/11/09 03:43:14;;;;;;;4.18;2.03;;;;;;;11.97;64.80;100437.38;7395895;19;20014;-70
2022/11/09 03:45:43;;;;;;;4.10;1.92;;;;;;;11.98;64.61;100432.06;7396820;19;20074;-70
2022/11/09 03:48:11;;;;;;;4.97;2.42;;;;;;;12.00;64.88;100434.66;7396188;19;20035;-70
2022/11/09 03:50:40;;;;;;;3.40;1.85;;;;;;;12.01;64.70;100431.13;7395398;19;20418;-70
2022/11/09 03:53:11;;;;;;;3.90;1.90;;;;;;;12.03;64.75;100429.28;7395643;19;20022;-70
2022/11/09 03:55:40;;;;;;;2.75;1.90;;;;;;;12.04;64.52;100423.09;7394322;19;20022;-70
2022/11/09 03:58:10;;;;;;;4.10;2.08;;;;;;;12.06;64.51;100429.19;7395801;19;20035;-70
2022/11/09 04:00:41;;;;;;;3.65;2.60;;;;;;;12.08;64.71;100423.88;7395588;19;20014;-70
2022/11/09 04:03:10;;;;;;;4.60;2.95;;;;;;;12.08;64.61;100424.75;7394128;19;20022;-70
2022/11/09 04:05:38;;;;;;;6.03;3.40;;;;;;;12.12;64.60;100422.84;7395713;19;20035;-70
2022/11/09 04:08:07;;;;;;;4.50;2.80;;;;;;;12.13;64.61;100421.94;7393924;19;20022;-70
2022/11/09 04:10:36;;;;;;;4.75;2.92;;;;;;;12.14;64.53;100432.41;7393169;19;20485;-70
2022/11/09 04:13:04;;;;;;;5.32;3.15;;;;;;;12.15;64.46;100426.25;7394014;19;20014;-70
2022/11/09 04:15:33;;;;;;;3.45;2.35;;;;;;;12.18;64.40;100426.16;7393357;19;20506;-70
2022/11/09 04:18:04;;;;;;;3.67;2.63;;;;;;;12.20;64.33;100428.72;7395050;19;20035;-70
2022/11/09 04:20:33;;;;;;;3.50;2.40;;;;;;;12.21;64.22;100426.03;7393950;19;20021;-70
2022/11/09 04:23:03;;;;;;;4.00;3.13;;;;;;;12.23;64.27;100433.88;7394966;19;20090;-70
2022/11/09 04:25:34;;;;;;;4.63;2.40;;;;;;;12.24;64.36;100430.34;7395107;19;20070;-70
2022/11/09 04:28:05;;;;;;;3.67;2.30;;;;;;;12.25;64.13;100445.22;7395570;19;20066;-70
2022/11/09 04:30:36;;;;;;;3.08;2.47;;;;;;;12.26;64.36;100451.31;7395256;19;20035;-70
2022/11/09 04:33:08;;;;;;;3.08;2.00;;;;;;;12.26;64.27;100446.06;7394308;19;20098;-70
2022/11/09 04:35:37;;;;;;;4.47;2.40;;;;;;;12.26;64.19;100448.69;7392966;19;20082;-70
2022/11/09 04:38:07;;;;;;;5.15;1.88;;;;;;;12.25;64.34;100439.94;7392572;19;20018;-70
2022/11/09 04:40:37;;;;;;;2.55;1.85;;;;;;;12.26;64.42;100448.69;7394806;19;20026;-70
2022/11/09 04:43:07;;;;;;;2.55;2.03;;;;;;;12.27;64.56;100442.53;7393936;19;20023;-70
2022/11/09 04:45:36;;;;;;;5.03;2.22;;;;;;;12.25;64.51;100437.31;7394160;19;20026;-70
2022/11/09 04:48:09;;;;;;;4.63;2.05;;;;;;;12.24;64.65;100435.59;7393662;19;20082;-70
2022/11/09 04:50:37;;;;;;;3.53;2.10;;;;;;;12.22;64.67;100435.66;7394553;19;20041;-70
2022/11/09 04:53:10;;;;;;;3.70;2.05;;;;;;;12.19;64.90;100430.47;7393753;19;20082;-70
2022/11/09 04:55:39;;;;;;;3.97;2.33;;;;;;;12.19;65.01;100430.47;7393821;19;20501;-70
2022/11/09 04:58:08;;;;;;;3.92;2.00;;;;;;;12.18;65.18;100441.06;7393786;19;20094;-70
2022/11/09 05:00:38;;;;;;;4.80;2.22;;;;;;;12.16;65.11;100453.41;7394179;19;20087;-70
2022/11/09 05:03:09;;;;;;;4.38;2.10;;;;;;;12.14;65.18;100455.22;7393443;19;20082;-70
2022/11/09 05:05:40;;;;;;;4.53;1.92;;;;;;;12.12;65.57;100457.03;7394014;19;20019;-69
2022/11/09 05:08:10;;;;;;;3.70;2.47;;;;;;;12.08;65.54;100461.56;7394086;19;20018;-70
2022/11/09 05:10:38;;;;;;;3.45;2.20;;;;;;;12.08;65.70;100458.94;7393243;19;20094;-69
2022/11/09 05:13:08;;;;;;;4.43;3.15;;;;;;;12.05;65.67;100457.22;7391344;19;20027;-70
2022/11/09 05:15:37;;;;;;;5.60;2.38;;;;;;;12.05;65.74;100464.28;7398490;19;20018;-70
2022/11/09 05:18:09;;;;;;;3.65;2.42;;;;;;;12.05;65.66;100474.78;7400110;19;20086;-70
2022/11/09 05:20:38;;;;;;;4.35;2.25;;;;;;;12.02;65.74;100470.50;7400910;19;20078;-70
2022/11/09 05:25:48;;;;;;;5.68;2.67;;;;;;;11.99;65.90;100467.97;7400844;19;20078;-69
2022/11/09 05:28:16;;;;;;;4.57;2.67;;;;;;;11.99;66.02;100469.72;7400456;19;20087;-70
2022/11/09 05:30:45;;;;;;;4.25;2.60;;;;;;;11.98;66.12;100473.25;7400039;19;20094;-70
2022/11/09 05:33:16;;;;;;;4.55;2.50;;;;;;;11.97;66.21;100480.31;7397401;19;20056;-70
2022/11/09 05:35:45;;;;;;;5.53;2.30;;;;;;;11.95;66.27;100476.81;7399550;19;20078;-70
2022/11/09 05:38:13;;;;;;;3.58;2.58;;;;;;;11.94;66.12;100468.97;7396801;19;20362;-69
2022/11/09 05:40:41;;;;;;;3.42;2.50;;;;;;;11.95;66.24;100478.59;7400375;19;20032;-69
2022/11/09 05:43:10;;;;;;;4.85;2.70;;;;;;;11.93;66.29;100475.16;7399839;19;20085;-69
2022/11/09 05:45:38;;;;;;;5.57;2.63;;;;;;;11.93;66.42;100475.16;7400105;19;20022;-69
2022/11/09 05:48:08;;;;;;;5.13;2.90;;;;;;;11.92;66.13;100479.56;7399339;19;20509;-69
2022/11/09 05:50:40;;;;;;;4.65;3.03;;;;;;;11.92;66.29;100486.56;7399620;19;20027;-69
2022/11/09 05:53:08;;;;;;;5.05;3.10;;;;;;;11.92;66.43;100491.81;7398104;19;20144;-69
2022/11/09 05:55:37;;;;;;;4.13;3.20;;;;;;;11.92;66.58;100483.94;7399837;19;20082;-69
2022/11/09 05:58:07;;;;;;;4.03;2.95;;;;;;;11.90;66.77;100470.84;7399138;19;20026;-70
2022/11/09 06:00:36;;;;;;;6.18;3.10;;;;;;;11.90;66.65;100474.34;7396298;19;20014;-69
2022/11/09 06:03:05;;;;;;;6.05;3.33;;;;;;;11.92;66.68;100489.19;7399144;19;20023;-69
2022/11/09 06:05:34;;;;;;;4.60;2.88;;;;;;;11.92;66.50;100478.69;7395368;19;20026;-69
2022/11/09 06:08:11;;;;;;;5.20;2.65;;;;;;;11.91;66.76;100483.09;7396688;19;20429;-70
2022/11/09 06:10:40;;;;;;;4.75;2.78;;;;;;;11.94;66.73;100484.75;7399269;19;20087;-69
2022/11/09 06:13:09;;;;;;;3.55;2.83;;;;;;;11.92;66.78;100478.69;7396422;19;20022;-69
2022/11/09 06:15:37;;;;;;;5.78;2.95;;;;;;;11.93;66.81;100493.56;7398054;19;20190;-68
2022/11/09 06:18:06;;;;;;;4.68;2.85;;;;;;;11.91;66.81;100485.72;7397418;19;20078;-69
2022/11/09 06:20:34;;;;;;;5.63;2.90;;;;;;;11.93;66.60;100490.91;7397595;19;20032;-71
2022/11/09 06:23:04;;;;;;;5.20;3.47;;;;;;;11.92;67.02;100489.19;7395700;19;20120;-69
2022/11/09 06:25:35;;;;;;;9.95;4.65;;;;;;;11.92;67.35;100497.06;7395643;19;20488;-71
2022/11/09 06:28:03;;;;;;;7.05;3.42;;;;;;;11.90;67.89;100497.13;7398904;19;20039;-69
2022/11/09 06:30:32;;;;;;;3.10;2.50;;;;;;;11.87;68.34;100503.34;7397899;19;20079;-72
2022/11/09 06:33:01;;;;;;;4.88;2.75;;;;;;;11.83;68.69;100501.72;7395004;19;20394;-69
2022/11/09 06:35:30;;;;;;;3.33;2.35;;;;;;;11.79;69.44;100504.50;7395657;19;20022;-68
2022/11/09 06:37:59;;;;;;;5.40;2.70;;;;;;;11.71;70.06;100517.88;7395524;19;20090;-69
2022/11/09 06:40:28;;;;;;;6.22;3.13;;;;;;;11.64;70.78;100517.19;7395575;19;20015;-69
2022/11/09 06:43:01;;;;;;;4.93;2.80;;;;;;;11.57;71.93;100520.91;7396947;19;20082;-72
2022/11/09 06:45:31;;;;;;;3.38;2.35;;;;;;;11.47;72.34;100515.06;7397293;19;20433;-72
2022/11/09 06:48:01;;;;;;;2.92;2.60;;;;;;;11.37;72.82;100509.22;7395318;19;20546;-72
2022/11/09 06:50:32;;;;;;;7.05;4.13;;;;;;;11.29;73.46;100515.59;7397523;19;20073;-67
2022/11/09 06:53:02;;;;;;;4.75;2.88;;;;;;;11.20;74.43;100512.31;7395472;19;20082;-67
2022/11/09 06:55:32;;;;;;;4.93;3.15;;;;;;;11.10;75.01;100505.59;7397860;19;20086;-71
2022/11/09 06:58:07;;;;;;;7.35;4.05;;;;;;;11.03;76.14;100506.66;7397785;19;20101;-67
2022/11/09 07:00:36;;;;;;;4.15;3.42;;;;;;;10.96;76.32;100497.25;7395898;19;20077;-71
2022/11/09 07:03:05;;;;;;;5.90;3.63;;;;;;;10.91;76.92;100513.97;7396949;19;20089;-68
2022/11/09 07:05:33;;;;;;;4.93;3.92;;;;;;;10.85;77.33;100513.28;7396504;19;20430;-70
2022/11/09 07:08:02;;;;;;;5.25;3.55;;;;;;;10.79;77.63;100501.16;7395151;19;20082;-70
2022/11/09 07:10:30;;;;;;;5.43;3.85;;;;;;;10.75;78.54;100510.91;7397173;19;20424;-70
2022/11/09 07:12:59;;;;;;;6.60;4.13;;;;;;;10.71;78.81;100505.78;7395095;19;20086;-70
2022/11/09 07:15:30;;;;;;;5.20;3.63;;;;;;;10.66;79.24;100505.03;7397198;19;20094;-69
2022/11/09 07:17:59;;;;;;;9.32;4.75;;;;;;;10.61;79.58;100502.53;7397334;19;20083;-69
2022/11/09 07:20:27;;;;;;;6.43;4.30;;;;;;;10.59;79.91;100499.09;7396462;19;20081;-69
2022/11/09 07:22:56;;;;;;;6.03;4.20;;;;;;;10.56;80.22;100494.78;7395940;19;20086;-69
2022/11/09 07:25:26;;;;;;;7.25;4.32;;;;;;;10.54;80.62;100479.97;7394476;19;20019;-69
2022/11/09 07:27:54;;;;;;;6.97;3.58;;;;;;;10.50;81.78;100478.34;7396355;19;20014;-69
2022/11/09 07:30:23;;;;;;;4.93;4.40;;;;;;;10.49;81.45;100468.72;7396260;19;20071;-69
2022/11/09 07:32:54;;;;;;;5.60;4.18;;;;;;;10.45;82.42;100460.09;7395253;19;20082;-69
2022/11/09 07:35:22;;;;;;;8.45;5.97;;;;;;;10.44;82.55;100482.00;7396002;19;20418;-69
2022/11/09 07:37:51;;;;;;;6.75;4.70;;;;;;;10.43;82.30;100493.38;7393472;19;20087;-68
2022/11/09 07:40:19;;;;;;;7.53;4.78;;;;;;;10.42;82.30;100495.13;7395838;19;20018;-69
2022/11/09 07:42:48;;;;;;;6.07;4.25;;;;;;;10.43;82.54;100498.63;7394303;19;20070;-70
2022/11/09 07:45:17;;;;;;;6.65;4.18;;;;;;;10.45;82.63;100511.69;7394410;19;20082;-68
2022/11/09 07:47:45;;;;;;;6.60;4.40;;;;;;;10.47;82.84;100525.63;7395773;19;20077;-68
2022/11/09 07:50:16;;;;;;;6.82;4.03;;;;;;;10.47;83.27;100539.59;7394247;19;20082;-71
2022/11/09 07:52:45;;;;;;;9.13;4.88;;;;;;;10.47;83.36;100539.59;7394447;19;20074;-68
2022/11/09 07:55:13;;;;;;;6.53;4.65;;;;;;;10.49;83.53;100548.31;7393888;19;20026;-69
2022/11/09 07:57:43;;;;;;;5.47;4.35;;;;;;;10.51;83.65;100543.84;7394560;19;20019;-68
2022/11/09 08:00:13;;;;;;;5.93;4.50;;;;;;;10.51;83.98;100554.34;7393499;19;20014;-69
2022/11/09 08:02:42;;;;;;;6.07;4.43;;;;;;;10.51;84.37;100543.84;7394152;19;20085;-69
2022/11/09 08:05:10;;;;;;;7.80;5.15;;;;;;;10.53;84.36;100556.97;7393400;19;20541;-69
2022/11/09 08:07:41;;;;;;;6.80;4.50;;;;;;;10.53;84.40;100559.59;7393781;19;20078;-69
2022/11/09 08:10:11;;;;;;;12.05;5.70;;;;;;;10.53;84.44;100568.31;7395635;19;20094;-69
2022/11/09 08:12:39;;;;;;;7.15;4.90;;;;;;;10.53;84.40;100570.94;7393430;19;20015;-69
2022/11/09 08:15:09;;;;;;;7.25;5.07;;;;;;;10.53;84.61;100570.06;7392824;19;20070;-69
2022/11/09 08:17:37;;;;;;;8.45;5.00;;;;;;;10.52;84.68;100563.94;7395462;19;20089;-69
2022/11/09 08:20:07;;;;;;;6.80;5.90;;;;;;;10.51;84.95;100564.84;7394894;19;20087;-69
2022/11/09 08:22:42;;;;;;;7.75;5.75;;;;;;;10.51;84.93;100556.13;7394613;19;20081;-68
2022/11/09 08:25:20;;;;;;;7.38;5.35;;;;;;;10.52;84.96;100550.00;7392387;19;20423;-68
2022/11/09 08:27:49;;;;;;;7.32;5.80;;;;;;;10.50;85.11;100542.16;7393067;19;20018;-69
2022/11/09 08:30:20;;;;;;;6.22;5.22;;;;;;;10.52;85.16;100542.13;7392572;19;20019;-69
2022/11/09 08:32:49;;;;;;;13.73;9.98;;;;;;;10.52;85.13;100542.97;7393931;19;20407;-68
2022/11/09 08:35:19;;;;;;;7.68;5.28;;;;;;;10.54;84.90;100562.16;7393629;19;20031;-69
2022/11/09 08:37:50;;;;;;;6.55;5.40;;;;;;;10.55;85.10;100553.41;7392882;19;20019;-68
2022/11/09 08:40:24;;;;;;;6.63;5.13;;;;;;;10.57;85.02;100558.59;7392167;19;20011;-68
2022/11/09 08:42:55;;;;;;;7.65;5.93;;;;;;;10.57;85.32;100562.06;7394506;19;20039;-68
2022/11/09 08:45:23;;;;;;;8.13;5.93;;;;;;;10.58;85.24;100555.09;7394778;19;20078;-68
2022/11/09 08:47:59;;;;;;;7.32;5.20;;;;;;;10.60;85.54;100553.25;7394000;19;20039;-67
2022/11/09 08:50:28;;;;;;;7.80;5.75;;;;;;;10.62;85.44;100555.88;7401282;19;20074;-68
2022/11/09 08:52:57;;;;;;;7.35;5.97;;;;;;;10.62;85.19;100548.84;7400073;19;20046;-69
2022/11/09 08:55:35;;;;;;;8.43;6.35;;;;;;;10.66;85.64;100554.88;7398359;19;20509;-69
2022/11/09 08:58:05;;;;;;;6.75;5.35;;;;;;;10.68;85.84;100547.81;7400865;19;20082;-69
2022/11/09 09:00:34;;;;;;;13.73;8.73;;;;;;;10.71;85.88;100560.88;7401045;19;20501;-69
2022/11/09 09:03:05;;;;;;;16.52;9.65;;;;;;;10.73;85.83;100559.09;7398014;19;20018;-69
2022/11/09 09:05:34;;;;;;;14.40;9.93;;;;;;;10.75;85.87;100557.28;7401001;19;20015;-68
2022/11/09 09:08:03;;;;;;;21.95;13.05;;;;;;;10.78;86.20;100562.47;7398395;19;20007;-69
2022/11/09 09:10:34;;;;;;;8.65;5.90;;;;;;;10.81;86.12;100578.09;7401150;19;20022;-69
2022/11/09 09:13:03;;;;;;;7.22;5.45;;;;;;;10.82;86.33;100579.00;7398975;19;20082;-68
2022/11/09 09:15:32;;;;;;;8.13;5.63;;;;;;;10.87;86.52;100584.97;7400757;19;20023;-67
2022/11/09 09:18:01;;;;;;;8.55;5.22;;;;;;;10.89;86.44;100581.41;7400769;19;20039;-66
2022/11/09 09:20:30;;;;;;;8.52;4.93;;;;;;;10.91;86.58;100576.13;7397846;19;20078;-68
2022/11/09 09:23:00;;;;;;;6.50;4.57;;;;;;;10.89;87.17;100576.16;7399306;19;20078;-67
2022/11/09 09:25:29;;;;;;;6.63;4.53;;;;;;;10.94;86.54;100580.44;7400635;19;20032;-66
2022/11/09 09:28:00;;;;;;;6.28;5.07;;;;;;;10.95;86.47;100585.63;7399955;19;20086;-67
2022/11/09 09:30:28;;;;;;;8.77;4.35;;;;;;;10.97;86.54;100583.84;7400375;19;20086;-68
2022/11/09 09:33:00;;;;;;;5.63;4.57;;;;;;;11.00;86.71;100593.41;7399475;19;20032;-67
2022/11/09 09:35:29;;;;;;;6.88;4.20;;;;;;;11.03;86.69;100582.81;7399597;19;20025;-68
2022/11/09 09:37:58;;;;;;;6.50;4.40;;;;;;;11.06;86.51;100582.75;7398977;19;20078;-67
2022/11/09 09:40:33;;;;;;;7.68;4.72;;;;;;;11.08;86.92;100592.28;7399657;19;20082;-68
2022/11/09 09:43:04;;;;;;;7.55;5.03;;;;;;;11.13;86.56;100600.03;7399818;19;20423;-68
2022/11/09 09:45:37;;;;;;;5.57;4.00;;;;;;;11.16;86.28;100602.59;7400120;19;20485;-68
2022/11/09 09:48:19;;;;;;;5.07;4.45;;;;;;;11.20;86.11;100619.13;7399080;19;20500;-67
2022/11/09 09:50:51;;;;;;;6.28;5.28;;;;;;;11.24;86.20;100612.88;7399489;19;20022;-67
2022/11/09 09:53:28;;;;;;;5.78;4.63;;;;;;;11.27;86.02;100602.28;7398505;19;20086;-67
2022/11/09 09:56:01;;;;;;;8.25;5.03;;;;;;;11.31;86.15;100610.94;7400131;19;20085;-67
2022/11/09 09:58:36;;;;;;;7.72;5.20;;;;;;;11.31;86.24;100609.22;7399122;19;20006;-67
2022/11/09 10:01:12;;;;;;;5.95;4.15;;;;;;;11.35;85.96;100607.38;7397784;19;20018;-67
2022/11/09 10:03:41;;;;;;;7.65;4.55;;;;;;;11.38;85.89;100616.00;7398120;19;20074;-68
2022/11/09 10:06:24;;;;;;;6.32;4.60;;;;;;;11.41;85.71;100615.94;7399095;19;20545;-67
2022/11/09 10:09:29;;;;;;;6.10;4.93;;;;;;;11.46;85.65;100615.81;7399430;19;20010;-68
2022/11/09 10:12:04;;;;;;;7.97;4.70;;;;;;;11.50;85.67;100603.44;7396695;19;20090;-68
2022/11/09 10:15:00;;;;;;;9.15;4.90;;;;;;;11.48;85.67;100600.84;7396197;19;20074;-66
2022/11/09 10:17:39;;;;;;;7.82;4.80;;;;;;;11.57;85.22;100621.63;7398771;19;20165;-72
2022/11/09 10:20:28;;;;;;;5.78;4.85;;;;;;;11.61;85.43;100614.50;7399060;19;20074;-71
2022/11/09 10:23:18;;;;;;;6.28;4.20;;;;;;;11.64;85.30;100603.03;7396887;19;20031;-72
2022/11/09 10:25:49;;;;;;;4.85;4.22;;;;;;;11.66;85.09;100599.47;7398368;19;20074;-69
2022/11/09 10:28:18;;;;;;;4.55;4.07;;;;;;;11.68;84.94;100605.53;7398231;19;20506;-67
2022/11/09 10:30:51;;;;;;;9.15;4.65;;;;;;;11.71;84.83;100609.84;7398101;19;20082;-66
2022/11/09 10:33:21;;;;;;;5.75;3.92;;;;;;;11.70;84.84;100602.88;7397061;19;20445;-67
2022/11/09 10:35:55;;;;;;;6.82;3.83;;;;;;;11.71;84.81;100597.59;7398193;19;20022;-68
2022/11/09 10:38:29;;;;;;;7.70;4.47;;;;;;;11.72;84.95;100601.91;7396385;19;20081;-67
2022/11/09 10:41:02;;;;;;;5.53;4.88;;;;;;;11.73;85.03;100590.50;7395415;19;20017;-67
2022/11/09 10:43:31;;;;;;;5.57;3.97;;;;;;;11.74;84.89;100580.88;7397926;19;20035;-68
2022/11/09 10:46:05;;;;;;;4.47;3.58;;;;;;;11.73;84.97;100579.16;7397677;19;20078;-67
2022/11/09 10:48:35;;;;;;;3.70;3.30;;;;;;;11.72;84.94;100569.53;7398044;19;20027;-67
2022/11/09 10:51:04;;;;;;;6.15;3.80;;;;;;;11.72;84.98;100567.75;7397862;19;20014;-67
2022/11/09 10:53:34;;;;;;;4.53;3.75;;;;;;;11.74;84.94;100570.34;7395332;19;20484;-66
2022/11/09 10:56:14;;;;;;;5.47;3.40;;;;;;;11.77;85.34;100574.66;7397300;19;20031;-67
2022/11/09 10:58:49;;;;;;;4.10;3.35;;;;;;;11.79;85.02;100573.72;7397482;19;20385;-67
2022/11/09 11:01:22;;;;;;;5.60;3.70;;;;;;;11.84;85.16;100571.81;7398018;19;20011;-67
2022/11/09 11:03:53;;;;;;;8.18;5.20;;;;;;;11.87;85.32;100574.31;7396266;19;20019;-67
2022/11/09 11:06:31;;;;;;;4.95;3.65;;;;;;;11.90;84.81;100566.38;7396741;19;20066;-67
2022/11/09 11:09:18;;;;;;;4.35;3.50;;;;;;;11.96;84.94;100556.59;7397640;19;20024;-67
2022/11/09 11:11:46;;;;;;;4.60;2.92;;;;;;;11.98;84.84;100542.50;7397288;19;20070;-67
2022/11/09 11:14:30;;;;;;;4.82;3.15;;;;;;;12.03;85.13;100552.84;7395039;19;20077;-67
2022/11/09 11:17:01;;;;;;;6.70;3.33;;;;;;;12.08;84.99;100572.00;7395256;19;20038;-67
2022/11/09 11:19:36;;;;;;;3.38;2.88;;;;;;;12.14;84.65;100558.63;7397250;19;20026;-66
2022/11/09 11:22:21;;;;;;;4.80;3.05;;;;;;;12.21;84.90;100554.06;7395258;19;20022;-68
2022/11/09 11:24:58;;;;;;;3.85;3.45;;;;;;;12.28;84.77;100550.31;7394442;19;20023;-66
2022/11/09 11:27:33;;;;;;;3.22;2.83;;;;;;;12.35;84.62;100530.81;7395928;19;20073;-66
2022/11/09 11:30:12;;;;;;;4.35;3.20;;;;;;;12.44;84.39;100534.06;7394775;19;20018;-67
2022/11/09 11:32:43;;;;;;;4.18;2.97;;;;;;;12.52;84.30;100529.38;7396426;19;20018;-66
2022/11/09 11:35:16;;;;;;;3.30;2.90;;;;;;;12.61;84.25;100520.31;7394139;19;20011;-66
2022/11/09 11:37:53;;;;;;;4.20;2.58;;;;;;;12.67;84.15;100515.69;7394249;19;20429;-66
2022/11/09 11:40:29;;;;;;;5.60;3.65;;;;;;;12.74;84.06;100512.84;7396529;19;20540;-66
2022/11/09 11:43:22;;;;;;;3.72;2.53;;;;;;;12.78;84.04;100512.72;7396961;19;20070;-70